sensor_id;sensor_type;location;lat;lon;timestamp;temperature;humidity
22379;DHT22;11357;49.990;7.370;2023-03-05T00:01:57;7.70;83.00
22379;DHT22;11357;49.990;7.370;2023-03-05T00:04:23;7.60;82.90
22379;DHT22;11357;49.990;7.370;2023-03-05T00:06:49;7.60;82.90
22379;DHT22;11357;49.990;7.370;2023-03-05T00:09:15;7.60;82.90
22379;DHT22;11357;49.990;7.370;2023-03-05T00:11:42;7.60;82.90
22379;DHT22;11357;49.990;7.370;2023-03-05T00:14:09;7.60;82.90
22379;DHT22;11357;49.990;7.370;2023-03-05T00:16:35;7.60;83.00
22379;DHT22;11357;49.990;7.370;2023-03-05T00:19:01;7.60;83.00
22379;DHT22;11357;49.990;7.370;2023-03-05T00:21:32;7.60;82.90
22379;DHT22;11357;49.990;7.370;2023-03-05T00:24:00;7.60;83.00
22379;DHT22;11357;49.990;7.370;2023-03-05T00:26:27;7.50;83.00
22379;DHT22;11357;49.990;7.370;2023-03-05T00:28:54;7.50;83.20
22379;DHT22;11357;49.990;7.370;2023-03-05T00:31:23;7.40;83.30
22379;DHT22;11357;49.990;7.370;2023-03-05T00:33:53;7.40;83.40
22379;DHT22;11357;49.990;7.370;2023-03-05T00:36:19;7.40;83.50
22379;DHT22;11357;49.990;7.370;2023-03-05T00:38:45;7.40;83.40
22379;DHT22;11357;49.990;7.370;2023-03-05T00:41:11;7.40;83.40
22379;DHT22;11357;49.990;7.370;2023-03-05T00:43:37;7.40;83.40
22379;DHT22;11357;49.990;7.370;2023-03-05T00:46:03;7.40;83.50
22379;DHT22;11357;49.990;7.370;2023-03-05T00:48:28;7.40;83.50
22379;DHT22;11357;49.990;7.370;2023-03-05T00:50:54;7.40;83.50
22379;DHT22;11357;49.990;7.370;2023-03-05T00:53:20;7.40;83.50
22379;DHT22;11357;49.990;7.370;2023-03-05T00:55:46;7.40;83.50
22379;DHT22;11357;49.990;7.370;2023-03-05T00:58:12;7.40;83.40
22379;DHT22;11357;49.990;7.370;2023-03-05T01:00:38;7.40;83.50
22379;DHT22;11357;49.990;7.370;2023-03-05T01:03:04;7.40;83.50
22379;DHT22;11357;49.990;7.370;2023-03-05T01:05:30;7.40;83.50
22379;DHT22;11357;49.990;7.370;2023-03-05T01:07:56;7.30;83.50
22379;DHT22;11357;49.990;7.370;2023-03-05T01:10:22;7.30;83.60
22379;DHT22;11357;49.990;7.370;2023-03-05T01:12:52;7.20;83.70
22379;DHT22;11357;49.990;7.370;2023-03-05T01:15:17;7.20;83.70
22379;DHT22;11357;49.990;7.370;2023-03-05T01:17:43;7.10;83.80
22379;DHT22;11357;49.990;7.370;2023-03-05T01:20:12;7.00;83.90
22379;DHT22;11357;49.990;7.370;2023-03-05T01:22:38;7.00;84.10
22379;DHT22;11357;49.990;7.370;2023-03-05T01:25:05;7.00;84.10
22379;DHT22;11357;49.990;7.370;2023-03-05T01:27:30;7.00;84.70
22379;DHT22;11357;49.990;7.370;2023-03-05T01:29:56;7.00;84.00
22379;DHT22;11357;49.990;7.370;2023-03-05T01:32:22;7.00;84.00
22379;DHT22;11357;49.990;7.370;2023-03-05T01:34:48;7.00;84.10
22379;DHT22;11357;49.990;7.370;2023-03-05T01:37:13;7.00;84.10
22379;DHT22;11357;49.990;7.370;2023-03-05T01:39:39;7.00;84.00
22379;DHT22;11357;49.990;7.370;2023-03-05T01:42:05;6.90;84.00
22379;DHT22;11357;49.990;7.370;2023-03-05T01:44:31;6.90;84.00
22379;DHT22;11357;49.990;7.370;2023-03-05T01:46:58;6.90;84.00
22379;DHT22;11357;49.990;7.370;2023-03-05T01:54:39;6.80;84.00
22379;DHT22;11357;49.990;7.370;2023-03-05T01:57:15;6.80;84.10
22379;DHT22;11357;49.990;7.370;2023-03-05T01:59:44;6.70;84.10
22379;DHT22;11357;49.990;7.370;2023-03-05T02:02:13;6.60;84.20
22379;DHT22;11357;49.990;7.370;2023-03-05T02:04:45;6.50;84.10
22379;DHT22;11357;49.990;7.370;2023-03-05T02:07:13;6.40;84.40
22379;DHT22;11357;49.990;7.370;2023-03-05T02:09:39;6.40;84.50
22379;DHT22;11357;49.990;7.370;2023-03-05T02:12:06;6.30;84.50
22379;DHT22;11357;49.990;7.370;2023-03-05T02:14:33;6.30;84.50
22379;DHT22;11357;49.990;7.370;2023-03-05T02:16:59;6.30;84.50
22379;DHT22;11357;49.990;7.370;2023-03-05T02:19:25;6.30;84.50
22379;DHT22;11357;49.990;7.370;2023-03-05T02:21:50;6.30;84.40
22379;DHT22;11357;49.990;7.370;2023-03-05T02:24:35;6.30;84.50
22379;DHT22;11357;49.990;7.370;2023-03-05T02:27:02;6.30;84.50
22379;DHT22;11357;49.990;7.370;2023-03-05T02:29:30;6.40;84.50
22379;DHT22;11357;49.990;7.370;2023-03-05T02:31:57;6.30;84.40
22379;DHT22;11357;49.990;7.370;2023-03-05T02:34:23;6.30;84.30
22379;DHT22;11357;49.990;7.370;2023-03-05T02:36:49;6.30;84.30
22379;DHT22;11357;49.990;7.370;2023-03-05T02:39:16;6.30;84.30
22379;DHT22;11357;49.990;7.370;2023-03-05T02:41:42;6.40;84.30
22379;DHT22;11357;49.990;7.370;2023-03-05T02:44:08;6.40;84.10
22379;DHT22;11357;49.990;7.370;2023-03-05T02:46:34;6.50;84.00
22379;DHT22;11357;49.990;7.370;2023-03-05T02:48:59;6.50;83.80
22379;DHT22;11357;49.990;7.370;2023-03-05T02:51:25;6.50;83.80
22379;DHT22;11357;49.990;7.370;2023-03-05T02:53:51;6.40;83.90
22379;DHT22;11357;49.990;7.370;2023-03-05T02:56:17;6.40;83.90
22379;DHT22;11357;49.990;7.370;2023-03-05T02:58:43;6.40;83.80
22379;DHT22;11357;49.990;7.370;2023-03-05T03:01:09;6.40;83.80
22379;DHT22;11357;49.990;7.370;2023-03-05T03:03:35;6.40;83.80
22379;DHT22;11357;49.990;7.370;2023-03-05T03:06:01;6.40;83.70
22379;DHT22;11357;49.990;7.370;2023-03-05T03:08:27;6.40;83.70
22379;DHT22;11357;49.990;7.370;2023-03-05T03:10:53;6.40;83.70
22379;DHT22;11357;49.990;7.370;2023-03-05T03:13:22;6.40;83.70
22379;DHT22;11357;49.990;7.370;2023-03-05T03:15:48;6.40;83.60
22379;DHT22;11357;49.990;7.370;2023-03-05T03:18:14;6.30;83.70
22379;DHT22;11357;49.990;7.370;2023-03-05T03:20:40;6.30;83.70
22379;DHT22;11357;49.990;7.370;2023-03-05T03:23:06;6.40;83.80
22379;DHT22;11357;49.990;7.370;2023-03-05T03:25:32;6.30;83.70
22379;DHT22;11357;49.990;7.370;2023-03-05T03:27:58;6.30;83.60
22379;DHT22;11357;49.990;7.370;2023-03-05T03:30:23;6.30;83.60
22379;DHT22;11357;49.990;7.370;2023-03-05T03:32:50;6.30;83.70
22379;DHT22;11357;49.990;7.370;2023-03-05T03:35:16;6.40;83.70
22379;DHT22;11357;49.990;7.370;2023-03-05T03:37:42;6.40;83.50
22379;DHT22;11357;49.990;7.370;2023-03-05T03:40:10;6.40;83.50
22379;DHT22;11357;49.990;7.370;2023-03-05T03:42:36;6.40;83.40
22379;DHT22;11357;49.990;7.370;2023-03-05T03:45:02;6.40;83.30
22379;DHT22;11357;49.990;7.370;2023-03-05T03:47:29;6.40;83.30
22379;DHT22;11357;49.990;7.370;2023-03-05T03:49:56;6.40;83.30
22379;DHT22;11357;49.990;7.370;2023-03-05T03:52:23;6.30;83.30
22379;DHT22;11357;49.990;7.370;2023-03-05T03:54:49;6.30;83.30
22379;DHT22;11357;49.990;7.370;2023-03-05T03:57:16;6.20;83.40
22379;DHT22;11357;49.990;7.370;2023-03-05T03:59:42;6.20;83.40
22379;DHT22;11357;49.990;7.370;2023-03-05T04:02:10;6.20;83.50
22379;DHT22;11357;49.990;7.370;2023-03-05T04:04:35;6.20;83.50
22379;DHT22;11357;49.990;7.370;2023-03-05T04:07:01;6.20;83.50
22379;DHT22;11357;49.990;7.370;2023-03-05T04:09:27;6.20;83.40
22379;DHT22;11357;49.990;7.370;2023-03-05T04:11:52;6.20;83.40
22379;DHT22;11357;49.990;7.370;2023-03-05T04:14:18;6.20;83.50
22379;DHT22;11357;49.990;7.370;2023-03-05T04:16:44;6.10;83.50
22379;DHT22;11357;49.990;7.370;2023-03-05T04:19:10;6.10;83.50
22379;DHT22;11357;49.990;7.370;2023-03-05T04:21:35;6.00;83.60
22379;DHT22;11357;49.990;7.370;2023-03-05T04:24:01;6.00;83.60
22379;DHT22;11357;49.990;7.370;2023-03-05T04:26:27;6.00;83.70
22379;DHT22;11357;49.990;7.370;2023-03-05T04:28:53;6.00;83.70
22379;DHT22;11357;49.990;7.370;2023-03-05T04:31:18;5.90;83.70
22379;DHT22;11357;49.990;7.370;2023-03-05T04:33:45;5.80;83.80
22379;DHT22;11357;49.990;7.370;2023-03-05T04:36:10;5.80;83.90
22379;DHT22;11357;49.990;7.370;2023-03-05T04:38:36;5.80;83.90
22379;DHT22;11357;49.990;7.370;2023-03-05T04:41:02;5.80;83.80
22379;DHT22;11357;49.990;7.370;2023-03-05T04:43:28;5.80;83.70
22379;DHT22;11357;49.990;7.370;2023-03-05T04:45:54;5.80;83.70
22379;DHT22;11357;49.990;7.370;2023-03-05T04:48:20;5.80;83.80
22379;DHT22;11357;49.990;7.370;2023-03-05T04:50:46;5.80;83.80
22379;DHT22;11357;49.990;7.370;2023-03-05T04:53:11;5.90;83.60
22379;DHT22;11357;49.990;7.370;2023-03-05T04:55:37;5.90;83.40
22379;DHT22;11357;49.990;7.370;2023-03-05T04:58:03;6.00;83.40
22379;DHT22;11357;49.990;7.370;2023-03-05T05:00:29;5.90;83.40
22379;DHT22;11357;49.990;7.370;2023-03-05T05:02:54;5.90;83.30
22379;DHT22;11357;49.990;7.370;2023-03-05T05:05:24;5.90;83.30
22379;DHT22;11357;49.990;7.370;2023-03-05T05:07:53;5.90;83.40
22379;DHT22;11357;49.990;7.370;2023-03-05T05:10:20;5.90;83.40
22379;DHT22;11357;49.990;7.370;2023-03-05T05:12:45;5.90;83.30
22379;DHT22;11357;49.990;7.370;2023-03-05T05:15:11;6.00;83.20
22379;DHT22;11357;49.990;7.370;2023-03-05T05:17:37;6.00;83.10
22379;DHT22;11357;49.990;7.370;2023-03-05T05:20:05;6.10;82.90
22379;DHT22;11357;49.990;7.370;2023-03-05T05:22:32;6.10;82.80
22379;DHT22;11357;49.990;7.370;2023-03-05T05:24:58;6.20;82.70
22379;DHT22;11357;49.990;7.370;2023-03-05T05:27:24;6.30;82.50
22379;DHT22;11357;49.990;7.370;2023-03-05T05:29:50;6.30;82.30
22379;DHT22;11357;49.990;7.370;2023-03-05T05:32:17;6.30;82.20
22379;DHT22;11357;49.990;7.370;2023-03-05T05:34:43;6.40;82.10
22379;DHT22;11357;49.990;7.370;2023-03-05T05:37:10;6.40;82.10
22379;DHT22;11357;49.990;7.370;2023-03-05T05:39:35;6.40;82.00
22379;DHT22;11357;49.990;7.370;2023-03-05T05:42:01;6.40;81.90
22379;DHT22;11357;49.990;7.370;2023-03-05T05:44:27;6.40;81.90
22379;DHT22;11357;49.990;7.370;2023-03-05T05:46:53;6.40;81.80
22379;DHT22;11357;49.990;7.370;2023-03-05T05:49:19;6.40;81.80
22379;DHT22;11357;49.990;7.370;2023-03-05T05:51:44;6.40;81.70
22379;DHT22;11357;49.990;7.370;2023-03-05T05:54:14;6.40;81.60
22379;DHT22;11357;49.990;7.370;2023-03-05T05:56:40;6.40;81.70
22379;DHT22;11357;49.990;7.370;2023-03-05T05:59:07;6.40;81.60
22379;DHT22;11357;49.990;7.370;2023-03-05T06:01:34;6.40;81.60
22379;DHT22;11357;49.990;7.370;2023-03-05T06:04:01;6.40;81.50
22379;DHT22;11357;49.990;7.370;2023-03-05T06:06:27;6.40;81.50
22379;DHT22;11357;49.990;7.370;2023-03-05T06:08:54;6.40;81.40
22379;DHT22;11357;49.990;7.370;2023-03-05T06:11:20;6.40;81.20
22379;DHT22;11357;49.990;7.370;2023-03-05T06:13:47;6.40;81.20
22379;DHT22;11357;49.990;7.370;2023-03-05T06:16:15;6.30;81.10
22379;DHT22;11357;49.990;7.370;2023-03-05T06:18:42;6.30;81.00
22379;DHT22;11357;49.990;7.370;2023-03-05T06:21:11;6.30;80.90
22379;DHT22;11357;49.990;7.370;2023-03-05T06:23:37;6.30;80.80
22379;DHT22;11357;49.990;7.370;2023-03-05T06:26:05;6.30;80.70
22379;DHT22;11357;49.990;7.370;2023-03-05T06:28:32;6.30;80.50
22379;DHT22;11357;49.990;7.370;2023-03-05T06:31:10;6.20;80.50
22379;DHT22;11357;49.990;7.370;2023-03-05T06:33:37;6.10;80.40
22379;DHT22;11357;49.990;7.370;2023-03-05T06:36:23;6.10;80.40
22379;DHT22;11357;49.990;7.370;2023-03-05T06:38:50;6.10;80.30
22379;DHT22;11357;49.990;7.370;2023-03-05T06:41:19;6.20;80.10
22379;DHT22;11357;49.990;7.370;2023-03-05T06:43:46;6.20;80.00
22379;DHT22;11357;49.990;7.370;2023-03-05T06:46:15;6.10;79.80
22379;DHT22;11357;49.990;7.370;2023-03-05T06:48:41;6.20;79.80
22379;DHT22;11357;49.990;7.370;2023-03-05T06:51:14;6.20;79.70
22379;DHT22;11357;49.990;7.370;2023-03-05T06:53:40;6.20;79.50
22379;DHT22;11357;49.990;7.370;2023-03-05T06:56:06;6.30;79.30
22379;DHT22;11357;49.990;7.370;2023-03-05T06:58:32;6.30;79.30
22379;DHT22;11357;49.990;7.370;2023-03-05T07:00:58;6.40;79.20
22379;DHT22;11357;49.990;7.370;2023-03-05T07:03:23;6.40;79.10
22379;DHT22;11357;49.990;7.370;2023-03-05T07:05:49;6.50;79.00
22379;DHT22;11357;49.990;7.370;2023-03-05T07:08:15;6.50;78.80
22379;DHT22;11357;49.990;7.370;2023-03-05T07:10:42;6.50;78.70
22379;DHT22;11357;49.990;7.370;2023-03-05T07:13:08;6.60;78.70
22379;DHT22;11357;49.990;7.370;2023-03-05T07:15:37;6.60;78.60
22379;DHT22;11357;49.990;7.370;2023-03-05T07:18:03;6.60;78.50
22379;DHT22;11357;49.990;7.370;2023-03-05T07:20:29;6.60;78.50
22379;DHT22;11357;49.990;7.370;2023-03-05T07:22:55;6.60;78.50
22379;DHT22;11357;49.990;7.370;2023-03-05T07:25:21;6.60;78.30
22379;DHT22;11357;49.990;7.370;2023-03-05T07:27:48;6.70;78.40
22379;DHT22;11357;49.990;7.370;2023-03-05T07:30:14;6.60;78.20
22379;DHT22;11357;49.990;7.370;2023-03-05T07:32:40;6.70;78.20
22379;DHT22;11357;49.990;7.370;2023-03-05T07:35:06;6.80;78.10
22379;DHT22;11357;49.990;7.370;2023-03-05T07:37:32;6.80;78.10
22379;DHT22;11357;49.990;7.370;2023-03-05T07:39:58;6.80;78.00
22379;DHT22;11357;49.990;7.370;2023-03-05T07:42:24;6.80;78.00
22379;DHT22;11357;49.990;7.370;2023-03-05T07:44:50;6.80;77.90
22379;DHT22;11357;49.990;7.370;2023-03-05T07:47:16;6.80;77.90
22379;DHT22;11357;49.990;7.370;2023-03-05T07:49:41;6.80;77.90
22379;DHT22;11357;49.990;7.370;2023-03-05T07:52:08;6.80;77.80
22379;DHT22;11357;49.990;7.370;2023-03-05T07:54:34;6.80;77.60
22379;DHT22;11357;49.990;7.370;2023-03-05T07:57:03;6.80;77.60
22379;DHT22;11357;49.990;7.370;2023-03-05T07:59:29;6.80;77.60
22379;DHT22;11357;49.990;7.370;2023-03-05T08:01:55;6.90;77.60
22379;DHT22;11357;49.990;7.370;2023-03-05T08:04:21;6.90;77.50
22379;DHT22;11357;49.990;7.370;2023-03-05T08:06:47;6.90;77.40
22379;DHT22;11357;49.990;7.370;2023-03-05T08:09:15;6.90;77.10
22379;DHT22;11357;49.990;7.370;2023-03-05T08:11:41;6.90;77.00
22379;DHT22;11357;49.990;7.370;2023-03-05T08:14:07;7.00;77.00
22379;DHT22;11357;49.990;7.370;2023-03-05T08:16:33;7.00;76.90
22379;DHT22;11357;49.990;7.370;2023-03-05T08:18:59;7.00;76.80
22379;DHT22;11357;49.990;7.370;2023-03-05T08:21:27;7.10;76.90
22379;DHT22;11357;49.990;7.370;2023-03-05T08:23:57;7.10;76.80
22379;DHT22;11357;49.990;7.370;2023-03-05T08:26:25;7.20;76.80
22379;DHT22;11357;49.990;7.370;2023-03-05T08:28:51;7.20;76.70
22379;DHT22;11357;49.990;7.370;2023-03-05T08:31:18;7.20;76.60
22379;DHT22;11357;49.990;7.370;2023-03-05T08:33:47;7.30;76.60
22379;DHT22;11357;49.990;7.370;2023-03-05T08:36:13;7.30;76.40
22379;DHT22;11357;49.990;7.370;2023-03-05T08:38:39;7.30;76.30
22379;DHT22;11357;49.990;7.370;2023-03-05T08:41:05;7.30;76.20
22379;DHT22;11357;49.990;7.370;2023-03-05T08:43:31;7.20;76.10
22379;DHT22;11357;49.990;7.370;2023-03-05T08:45:59;7.20;76.10
22379;DHT22;11357;49.990;7.370;2023-03-05T08:48:25;7.10;76.10
22379;DHT22;11357;49.990;7.370;2023-03-05T08:50:51;7.00;76.10
22379;DHT22;11357;49.990;7.370;2023-03-05T08:53:17;7.00;76.30
22379;DHT22;11357;49.990;7.370;2023-03-05T08:55:43;6.90;76.40
22379;DHT22;11357;49.990;7.370;2023-03-05T08:58:09;7.00;76.60
22379;DHT22;11357;49.990;7.370;2023-03-05T09:00:35;7.00;76.50
22379;DHT22;11357;49.990;7.370;2023-03-05T09:03:00;7.00;76.40
22379;DHT22;11357;49.990;7.370;2023-03-05T09:05:29;6.90;76.50
22379;DHT22;11357;49.990;7.370;2023-03-05T09:07:55;7.00;76.50
22379;DHT22;11357;49.990;7.370;2023-03-05T09:10:21;7.00;76.40
22379;DHT22;11357;49.990;7.370;2023-03-05T09:12:46;7.20;76.50
22379;DHT22;11357;49.990;7.370;2023-03-05T09:15:13;7.30;76.40
22379;DHT22;11357;49.990;7.370;2023-03-05T09:17:39;7.30;76.20
22379;DHT22;11357;49.990;7.370;2023-03-05T09:20:06;7.30;76.00
22379;DHT22;11357;49.990;7.370;2023-03-05T09:22:32;7.40;76.00
22379;DHT22;11357;49.990;7.370;2023-03-05T09:24:58;7.40;76.70
22379;DHT22;11357;49.990;7.370;2023-03-05T09:27:24;7.40;76.00
22379;DHT22;11357;49.990;7.370;2023-03-05T09:29:50;7.40;75.90
22379;DHT22;11357;49.990;7.370;2023-03-05T09:32:17;7.30;75.90
22379;DHT22;11357;49.990;7.370;2023-03-05T09:34:43;7.40;75.90
22379;DHT22;11357;49.990;7.370;2023-03-05T09:37:08;7.50;76.00
22379;DHT22;11357;49.990;7.370;2023-03-05T09:39:34;7.60;75.90
22379;DHT22;11357;49.990;7.370;2023-03-05T09:47:43;7.90;75.60
22379;DHT22;11357;49.990;7.370;2023-03-05T09:53:02;8.00;75.40
22379;DHT22;11357;49.990;7.370;2023-03-05T09:55:39;8.10;75.20
22379;DHT22;11357;49.990;7.370;2023-03-05T09:58:40;8.10;75.10
22379;DHT22;11357;49.990;7.370;2023-03-05T10:01:14;8.20;75.20
22379;DHT22;11357;49.990;7.370;2023-03-05T10:12:11;8.40;74.70
22379;DHT22;11357;49.990;7.370;2023-03-05T10:14:40;8.40;74.70
22379;DHT22;11357;49.990;7.370;2023-03-05T10:26:24;8.40;74.80
22379;DHT22;11357;49.990;7.370;2023-03-05T10:32:15;8.30;74.80
22379;DHT22;11357;49.990;7.370;2023-03-05T10:45:39;7.70;76.50
22379;DHT22;11357;49.990;7.370;2023-03-05T10:50:45;7.80;76.70
22379;DHT22;11357;49.990;7.370;2023-03-05T10:53:34;7.80;76.90
22379;DHT22;11357;49.990;7.370;2023-03-05T10:56:04;7.90;77.10
22379;DHT22;11357;49.990;7.370;2023-03-05T10:58:31;8.00;77.00
22379;DHT22;11357;49.990;7.370;2023-03-05T11:03:51;8.00;77.00
22379;DHT22;11357;49.990;7.370;2023-03-05T11:06:41;8.00;77.00
22379;DHT22;11357;49.990;7.370;2023-03-05T11:14:37;8.00;76.90
22379;DHT22;11357;49.990;7.370;2023-03-05T11:17:27;8.10;76.80
22379;DHT22;11357;49.990;7.370;2023-03-05T11:19:54;8.10;76.90
22379;DHT22;11357;49.990;7.370;2023-03-05T11:22:22;8.30;76.60
22379;DHT22;11357;49.990;7.370;2023-03-05T11:27:37;8.30;76.30
22379;DHT22;11357;49.990;7.370;2023-03-05T11:30:20;8.40;76.30
22379;DHT22;11357;49.990;7.370;2023-03-05T11:32:49;8.50;76.00
22379;DHT22;11357;49.990;7.370;2023-03-05T11:35:30;8.60;75.80
22379;DHT22;11357;49.990;7.370;2023-03-05T11:38:03;8.70;75.60
22379;DHT22;11357;49.990;7.370;2023-03-05T11:40:33;8.80;75.30
22379;DHT22;11357;49.990;7.370;2023-03-05T11:43:03;8.90;75.00
22379;DHT22;11357;49.990;7.370;2023-03-05T11:45:32;9.10;74.70
22379;DHT22;11357;49.990;7.370;2023-03-05T11:48:25;9.10;74.60
22379;DHT22;11357;49.990;7.370;2023-03-05T11:51:00;9.30;74.40
22379;DHT22;11357;49.990;7.370;2023-03-05T11:53:30;9.60;73.80
22379;DHT22;11357;49.990;7.370;2023-03-05T11:56:27;9.90;73.20
22379;DHT22;11357;49.990;7.370;2023-03-05T11:59:06;10.20;72.40
22379;DHT22;11357;49.990;7.370;2023-03-05T12:02:01;10.50;71.80
22379;DHT22;11357;49.990;7.370;2023-03-05T12:04:28;10.60;71.30
22379;DHT22;11357;49.990;7.370;2023-03-05T12:06:59;10.80;70.60
22379;DHT22;11357;49.990;7.370;2023-03-05T12:12:13;11.00;69.80
22379;DHT22;11357;49.990;7.370;2023-03-05T12:14:44;11.10;69.40
22379;DHT22;11357;49.990;7.370;2023-03-05T12:17:17;11.30;68.90
22379;DHT22;11357;49.990;7.370;2023-03-05T12:20:40;11.40;68.40
22379;DHT22;11357;49.990;7.370;2023-03-05T12:22:58;11.40;68.00
22379;DHT22;11357;49.990;7.370;2023-03-05T12:25:43;11.40;67.70
22379;DHT22;11357;49.990;7.370;2023-03-05T12:42:53;10.40;67.70
22379;DHT22;11357;49.990;7.370;2023-03-05T12:45:26;10.40;67.70
22379;DHT22;11357;49.990;7.370;2023-03-05T12:53:16;10.50;67.80
22379;DHT22;11357;49.990;7.370;2023-03-05T13:03:42;10.40;67.30
22379;DHT22;11357;49.990;7.370;2023-03-05T13:06:32;10.40;67.00
22379;DHT22;11357;49.990;7.370;2023-03-05T13:09:01;10.30;66.90
22379;DHT22;11357;49.990;7.370;2023-03-05T13:11:30;10.30;66.70
22379;DHT22;11357;49.990;7.370;2023-03-05T13:13:59;10.20;66.60
22379;DHT22;11357;49.990;7.370;2023-03-05T13:16:35;10.10;66.60
22379;DHT22;11357;49.990;7.370;2023-03-05T13:19:01;10.00;66.70
22379;DHT22;11357;49.990;7.370;2023-03-05T13:21:29;10.00;66.80
22379;DHT22;11357;49.990;7.370;2023-03-05T13:23:58;10.00;66.90
22379;DHT22;11357;49.990;7.370;2023-03-05T13:26:38;9.90;66.70
22379;DHT22;11357;49.990;7.370;2023-03-05T13:32:23;9.70;66.90
22379;DHT22;11357;49.990;7.370;2023-03-05T13:34:44;9.70;67.20
22379;DHT22;11357;49.990;7.370;2023-03-05T13:37:20;9.70;67.20
22379;DHT22;11357;49.990;7.370;2023-03-05T13:39:55;9.70;67.20
22379;DHT22;11357;49.990;7.370;2023-03-05T13:42:32;9.70;67.30
22379;DHT22;11357;49.990;7.370;2023-03-05T13:45:02;9.80;67.20
22379;DHT22;11357;49.990;7.370;2023-03-05T13:47:31;9.70;67.00
22379;DHT22;11357;49.990;7.370;2023-03-05T13:49:59;9.80;66.90
22379;DHT22;11357;49.990;7.370;2023-03-05T13:52:34;9.80;66.70
22379;DHT22;11357;49.990;7.370;2023-03-05T13:55:01;9.80;66.50
22379;DHT22;11357;49.990;7.370;2023-03-05T13:57:40;9.80;66.30
22379;DHT22;11357;49.990;7.370;2023-03-05T14:00:37;9.80;66.00
22379;DHT22;11357;49.990;7.370;2023-03-05T14:03:25;9.70;65.70
22379;DHT22;11357;49.990;7.370;2023-03-05T14:05:52;9.50;65.90
22379;DHT22;11357;49.990;7.370;2023-03-05T14:08:27;9.50;66.00
22379;DHT22;11357;49.990;7.370;2023-03-05T14:10:55;9.40;66.00
22379;DHT22;11357;49.990;7.370;2023-03-05T14:13:23;9.30;65.90
22379;DHT22;11357;49.990;7.370;2023-03-05T14:16:10;9.20;65.90
22379;DHT22;11357;49.990;7.370;2023-03-05T14:18:37;9.00;66.00
22379;DHT22;11357;49.990;7.370;2023-03-05T14:23:44;8.90;66.30
22379;DHT22;11357;49.990;7.370;2023-03-05T14:26:31;8.90;66.50
22379;DHT22;11357;49.990;7.370;2023-03-05T14:28:59;8.80;66.70
22379;DHT22;11357;49.990;7.370;2023-03-05T14:31:27;8.80;66.80
22379;DHT22;11357;49.990;7.370;2023-03-05T14:33:58;8.80;66.80
22379;DHT22;11357;49.990;7.370;2023-03-05T14:36:25;8.80;67.00
22379;DHT22;11357;49.990;7.370;2023-03-05T14:38:53;8.90;67.10
22379;DHT22;11357;49.990;7.370;2023-03-05T14:44:00;9.00;66.90
22379;DHT22;11357;49.990;7.370;2023-03-05T14:46:27;9.10;66.70
22379;DHT22;11357;49.990;7.370;2023-03-05T14:48:53;9.20;66.70
22379;DHT22;11357;49.990;7.370;2023-03-05T14:51:19;9.30;66.40
22379;DHT22;11357;49.990;7.370;2023-03-05T14:53:47;9.40;66.20
22379;DHT22;11357;49.990;7.370;2023-03-05T14:56:23;9.50;66.00
22379;DHT22;11357;49.990;7.370;2023-03-05T14:58:50;9.60;65.80
22379;DHT22;11357;49.990;7.370;2023-03-05T15:01:16;9.70;65.60
22379;DHT22;11357;49.990;7.370;2023-03-05T15:03:42;9.80;65.50
22379;DHT22;11357;49.990;7.370;2023-03-05T15:08:43;9.70;65.10
22379;DHT22;11357;49.990;7.370;2023-03-05T15:11:09;9.80;65.20
22379;DHT22;11357;49.990;7.370;2023-03-05T15:13:35;9.80;65.30
22379;DHT22;11357;49.990;7.370;2023-03-05T15:16:01;9.80;65.10
22379;DHT22;11357;49.990;7.370;2023-03-05T15:18:28;9.80;65.10
22379;DHT22;11357;49.990;7.370;2023-03-05T15:20:55;9.80;65.00
22379;DHT22;11357;49.990;7.370;2023-03-05T15:23:36;9.80;65.00
22379;DHT22;11357;49.990;7.370;2023-03-05T15:26:08;9.70;65.00
22379;DHT22;11357;49.990;7.370;2023-03-05T15:28:37;9.60;65.20
22379;DHT22;11357;49.990;7.370;2023-03-05T15:31:04;9.50;65.20
22379;DHT22;11357;49.990;7.370;2023-03-05T15:33:30;9.50;65.30
22379;DHT22;11357;49.990;7.370;2023-03-05T15:35:57;9.40;65.20
22379;DHT22;11357;49.990;7.370;2023-03-05T15:38:23;9.30;65.30
22379;DHT22;11357;49.990;7.370;2023-03-05T15:40:49;9.30;65.50
22379;DHT22;11357;49.990;7.370;2023-03-05T15:43:16;9.20;65.60
22379;DHT22;11357;49.990;7.370;2023-03-05T15:45:42;9.20;65.60
22379;DHT22;11357;49.990;7.370;2023-03-05T15:48:08;9.10;65.70
22379;DHT22;11357;49.990;7.370;2023-03-05T15:50:34;9.10;65.80
22379;DHT22;11357;49.990;7.370;2023-03-05T15:53:00;9.00;65.90
22379;DHT22;11357;49.990;7.370;2023-03-05T15:55:26;9.00;65.90
22379;DHT22;11357;49.990;7.370;2023-03-05T15:57:53;8.90;65.90
22379;DHT22;11357;49.990;7.370;2023-03-05T16:00:47;8.80;66.00
22379;DHT22;11357;49.990;7.370;2023-03-05T16:03:14;8.80;66.40
22379;DHT22;11357;49.990;7.370;2023-03-05T16:05:41;8.80;66.40
22379;DHT22;11357;49.990;7.370;2023-03-05T16:08:07;8.80;66.40
22379;DHT22;11357;49.990;7.370;2023-03-05T16:10:33;8.70;66.40
22379;DHT22;11357;49.990;7.370;2023-03-05T16:13:04;8.70;66.40
22379;DHT22;11357;49.990;7.370;2023-03-05T16:15:31;8.60;66.60
22379;DHT22;11357;49.990;7.370;2023-03-05T16:18:00;8.60;66.60
22379;DHT22;11357;49.990;7.370;2023-03-05T16:20:27;8.50;66.90
22379;DHT22;11357;49.990;7.370;2023-03-05T16:22:52;8.40;67.00
22379;DHT22;11357;49.990;7.370;2023-03-05T16:25:18;8.50;67.10
22379;DHT22;11357;49.990;7.370;2023-03-05T16:27:46;8.40;67.20
22379;DHT22;11357;49.990;7.370;2023-03-05T16:30:14;8.50;67.30
22379;DHT22;11357;49.990;7.370;2023-03-05T16:32:40;8.40;67.30
22379;DHT22;11357;49.990;7.370;2023-03-05T16:35:06;8.40;67.30
22379;DHT22;11357;49.990;7.370;2023-03-05T16:37:33;8.40;67.40
22379;DHT22;11357;49.990;7.370;2023-03-05T16:39:58;8.40;67.50
22379;DHT22;11357;49.990;7.370;2023-03-05T16:42:24;8.30;67.50
22379;DHT22;11357;49.990;7.370;2023-03-05T16:44:50;8.20;67.60
22379;DHT22;11357;49.990;7.370;2023-03-05T16:47:26;8.20;68.40
22379;DHT22;11357;49.990;7.370;2023-03-05T16:49:52;8.20;67.80
22379;DHT22;11357;49.990;7.370;2023-03-05T16:52:18;8.10;67.90
22379;DHT22;11357;49.990;7.370;2023-03-05T16:54:43;8.10;68.00
22379;DHT22;11357;49.990;7.370;2023-03-05T16:57:09;8.10;68.10
22379;DHT22;11357;49.990;7.370;2023-03-05T16:59:36;8.00;68.20
22379;DHT22;11357;49.990;7.370;2023-03-05T17:02:03;8.10;68.30
22379;DHT22;11357;49.990;7.370;2023-03-05T17:04:28;8.10;68.40
22379;DHT22;11357;49.990;7.370;2023-03-05T17:06:54;8.00;68.50
22379;DHT22;11357;49.990;7.370;2023-03-05T17:09:21;8.00;68.50
22379;DHT22;11357;49.990;7.370;2023-03-05T17:11:50;8.00;68.60
22379;DHT22;11357;49.990;7.370;2023-03-05T17:14:16;7.90;68.60
22379;DHT22;11357;49.990;7.370;2023-03-05T17:16:42;7.90;68.70
22379;DHT22;11357;49.990;7.370;2023-03-05T17:19:08;7.90;68.80
22379;DHT22;11357;49.990;7.370;2023-03-05T17:21:34;7.80;68.80
22379;DHT22;11357;49.990;7.370;2023-03-05T17:24:00;7.80;69.00
22379;DHT22;11357;49.990;7.370;2023-03-05T17:26:26;7.80;69.00
22379;DHT22;11357;49.990;7.370;2023-03-05T17:28:52;7.70;69.00
22379;DHT22;11357;49.990;7.370;2023-03-05T17:31:18;7.70;69.20
22379;DHT22;11357;49.990;7.370;2023-03-05T17:33:43;7.70;69.30